Nechanitz, Texas
Current Conditions -  °F | °C
As of 8:55 PM on Friday 19 Dec 2014 (Local Time) from KGYB Reporting Station
Overcast Overcast  
Wind Chill: 46°   Ceiling: 800
Heat Index: 49°   Visibility: 10mi
Dew Point: 46°   Wind: 8mph
Humidity: 89%   Direction: 360°N
Pressure: 30.2"   Gusts: 16mph
Location:  30.2279°N, 96.7713°W
Report Text: KGYB 200255Z AUTO 36007G14KT 10SM OVC008 10/08 A3020 RMK AO2 T00960078
Loading
Personal Weather Stations






























Interactive Weather Map New forecast layout! Learn more

10-Day Weather Forecast

Advertisements
Track Severe Weather on mobile